sensor_id;sensor_type;location;lat;lon;timestamp;P1;durP1;ratioP1;P2;durP2;ratioP2
70707;SDS011;58277;47.316;18.908;2024-02-21T00:01:46;11.75;;;4.63;;
70707;SDS011;58277;47.316;18.908;2024-02-21T00:04:09;6.40;;;3.60;;
70707;SDS011;58277;47.316;18.908;2024-02-21T00:06:32;7.07;;;3.67;;
70707;SDS011;58277;47.316;18.908;2024-02-21T00:08:54;6.97;;;3.60;;
70707;SDS011;58277;47.316;18.908;2024-02-21T00:11:17;6.97;;;3.60;;
70707;SDS011;58277;47.316;18.908;2024-02-21T00:13:40;6.85;;;3.17;;
70707;SDS011;58277;47.316;18.908;2024-02-21T00:16:03;6.20;;;3.30;;
70707;SDS011;58277;47.316;18.908;2024-02-21T00:18:26;6.50;;;3.33;;
70707;SDS011;58277;47.316;18.908;2024-02-21T00:20:51;6.13;;;3.13;;
70707;SDS011;58277;47.316;18.908;2024-02-21T00:23:14;6.50;;;3.13;;
70707;SDS011;58277;47.316;18.908;2024-02-21T00:25:37;8.68;;;3.00;;
70707;SDS011;58277;47.316;18.908;2024-02-21T00:28:00;6.70;;;2.77;;
70707;SDS011;58277;47.316;18.908;2024-02-21T00:30:23;4.97;;;2.15;;
70707;SDS011;58277;47.316;18.908;2024-02-21T00:32:46;4.75;;;2.20;;
70707;SDS011;58277;47.316;18.908;2024-02-21T00:35:08;4.57;;;1.95;;
70707;SDS011;58277;47.316;18.908;2024-02-21T00:37:31;4.88;;;2.05;;
70707;SDS011;58277;47.316;18.908;2024-02-21T00:39:54;4.70;;;2.03;;
70707;SDS011;58277;47.316;18.908;2024-02-21T00:42:17;3.90;;;2.20;;
70707;SDS011;58277;47.316;18.908;2024-02-21T00:44:41;5.35;;;2.30;;
70707;SDS011;58277;47.316;18.908;2024-02-21T00:47:03;5.53;;;2.20;;
70707;SDS011;58277;47.316;18.908;2024-02-21T00:49:26;4.88;;;2.30;;
70707;SDS011;58277;47.316;18.908;2024-02-21T00:51:49;4.47;;;2.20;;
70707;SDS011;58277;47.316;18.908;2024-02-21T00:54:12;5.95;;;2.47;;
70707;SDS011;58277;47.316;18.908;2024-02-21T00:56:36;3.67;;;1.90;;
70707;SDS011;58277;47.316;18.908;2024-02-21T00:58:59;4.15;;;1.92;;
70707;SDS011;58277;47.316;18.908;2024-02-21T01:01:22;5.45;;;2.63;;
70707;SDS011;58277;47.316;18.908;2024-02-21T01:03:46;4.43;;;2.40;;
70707;SDS011;58277;47.316;18.908;2024-02-21T01:06:09;5.97;;;2.40;;
70707;SDS011;58277;47.316;18.908;2024-02-21T01:08:36;3.92;;;2.35;;
70707;SDS011;58277;47.316;18.908;2024-02-21T01:10:58;3.83;;;2.10;;
70707;SDS011;58277;47.316;18.908;2024-02-21T01:13:21;4.63;;;2.45;;
70707;SDS011;58277;47.316;18.908;2024-02-21T01:15:44;3.70;;;2.30;;
70707;SDS011;58277;47.316;18.908;2024-02-21T01:18:07;4.68;;;2.10;;
70707;SDS011;58277;47.316;18.908;2024-02-21T01:20:33;5.88;;;2.50;;
70707;SDS011;58277;47.316;18.908;2024-02-21T01:22:55;5.15;;;2.28;;
70707;SDS011;58277;47.316;18.908;2024-02-21T01:25:18;5.20;;;2.40;;
70707;SDS011;58277;47.316;18.908;2024-02-21T01:27:41;6.30;;;2.57;;
70707;SDS011;58277;47.316;18.908;2024-02-21T01:30:04;5.72;;;2.40;;
70707;SDS011;58277;47.316;18.908;2024-02-21T01:32:28;5.18;;;2.22;;
70707;SDS011;58277;47.316;18.908;2024-02-21T01:34:51;4.90;;;2.50;;
70707;SDS011;58277;47.316;18.908;2024-02-21T01:37:14;4.65;;;2.20;;
70707;SDS011;58277;47.316;18.908;2024-02-21T01:39:36;3.53;;;2.10;;
70707;SDS011;58277;47.316;18.908;2024-02-21T01:41:59;4.00;;;2.10;;
70707;SDS011;58277;47.316;18.908;2024-02-21T01:44:22;3.95;;;1.90;;
70707;SDS011;58277;47.316;18.908;2024-02-21T01:46:45;4.15;;;2.40;;
70707;SDS011;58277;47.316;18.908;2024-02-21T01:49:07;4.30;;;2.20;;
70707;SDS011;58277;47.316;18.908;2024-02-21T01:51:30;3.60;;;2.10;;
70707;SDS011;58277;47.316;18.908;2024-02-21T01:53:54;4.43;;;2.20;;
70707;SDS011;58277;47.316;18.908;2024-02-21T01:56:18;5.55;;;2.38;;
70707;SDS011;58277;47.316;18.908;2024-02-21T01:58:42;5.50;;;2.40;;
70707;SDS011;58277;47.316;18.908;2024-02-21T02:01:06;3.92;;;2.30;;
70707;SDS011;58277;47.316;18.908;2024-02-21T02:03:29;3.80;;;2.40;;
70707;SDS011;58277;47.316;18.908;2024-02-21T02:05:52;4.85;;;2.30;;
70707;SDS011;58277;47.316;18.908;2024-02-21T02:08:15;5.43;;;2.53;;
70707;SDS011;58277;47.316;18.908;2024-02-21T02:10:39;4.35;;;2.42;;
70707;SDS011;58277;47.316;18.908;2024-02-21T02:13:03;4.93;;;2.40;;
70707;SDS011;58277;47.316;18.908;2024-02-21T02:15:26;5.47;;;2.47;;
70707;SDS011;58277;47.316;18.908;2024-02-21T02:17:49;4.72;;;2.60;;
70707;SDS011;58277;47.316;18.908;2024-02-21T02:20:11;4.97;;;2.17;;
70707;SDS011;58277;47.316;18.908;2024-02-21T02:22:35;4.82;;;2.70;;
70707;SDS011;58277;47.316;18.908;2024-02-21T02:25:01;6.30;;;2.33;;
70707;SDS011;58277;47.316;18.908;2024-02-21T02:27:24;7.63;;;2.60;;
70707;SDS011;58277;47.316;18.908;2024-02-21T02:29:46;5.60;;;2.45;;
70707;SDS011;58277;47.316;18.908;2024-02-21T02:32:09;4.50;;;2.40;;
70707;SDS011;58277;47.316;18.908;2024-02-21T02:34:32;6.25;;;2.60;;
70707;SDS011;58277;47.316;18.908;2024-02-21T02:36:55;5.05;;;2.58;;
70707;SDS011;58277;47.316;18.908;2024-02-21T02:39:18;4.83;;;2.27;;
70707;SDS011;58277;47.316;18.908;2024-02-21T02:41:40;6.80;;;2.80;;
70707;SDS011;58277;47.316;18.908;2024-02-21T02:44:03;7.50;;;3.03;;
70707;SDS011;58277;47.316;18.908;2024-02-21T02:46:26;5.70;;;2.78;;
70707;SDS011;58277;47.316;18.908;2024-02-21T02:48:48;6.13;;;2.58;;
70707;SDS011;58277;47.316;18.908;2024-02-21T02:51:11;6.20;;;2.67;;
70707;SDS011;58277;47.316;18.908;2024-02-21T02:53:34;5.85;;;2.58;;
70707;SDS011;58277;47.316;18.908;2024-02-21T02:55:57;3.70;;;2.40;;
70707;SDS011;58277;47.316;18.908;2024-02-21T02:58:20;7.18;;;2.50;;
70707;SDS011;58277;47.316;18.908;2024-02-21T03:00:42;4.10;;;2.13;;
70707;SDS011;58277;47.316;18.908;2024-02-21T03:03:05;4.50;;;2.20;;
70707;SDS011;58277;47.316;18.908;2024-02-21T03:05:28;3.50;;;2.30;;
70707;SDS011;58277;47.316;18.908;2024-02-21T03:07:51;5.63;;;2.30;;
70707;SDS011;58277;47.316;18.908;2024-02-21T03:10:14;4.72;;;2.50;;
70707;SDS011;58277;47.316;18.908;2024-02-21T03:12:41;4.80;;;2.47;;
70707;SDS011;58277;47.316;18.908;2024-02-21T03:15:04;4.43;;;2.27;;
70707;SDS011;58277;47.316;18.908;2024-02-21T03:17:27;5.70;;;2.28;;
70707;SDS011;58277;47.316;18.908;2024-02-21T03:19:51;4.50;;;2.20;;
70707;SDS011;58277;47.316;18.908;2024-02-21T03:22:15;6.03;;;2.80;;
70707;SDS011;58277;47.316;18.908;2024-02-21T03:24:38;6.43;;;2.47;;
70707;SDS011;58277;47.316;18.908;2024-02-21T03:27:01;4.93;;;2.40;;
70707;SDS011;58277;47.316;18.908;2024-02-21T03:29:23;5.88;;;2.47;;
70707;SDS011;58277;47.316;18.908;2024-02-21T03:31:46;6.25;;;2.50;;
70707;SDS011;58277;47.316;18.908;2024-02-21T03:34:11;5.03;;;2.30;;
70707;SDS011;58277;47.316;18.908;2024-02-21T03:36:34;4.88;;;2.40;;
70707;SDS011;58277;47.316;18.908;2024-02-21T03:38:57;4.80;;;2.40;;
70707;SDS011;58277;47.316;18.908;2024-02-21T03:41:20;6.07;;;2.50;;
70707;SDS011;58277;47.316;18.908;2024-02-21T03:43:44;4.90;;;2.30;;
70707;SDS011;58277;47.316;18.908;2024-02-21T03:46:07;5.97;;;2.30;;
70707;SDS011;58277;47.316;18.908;2024-02-21T03:48:30;5.82;;;2.65;;
70707;SDS011;58277;47.316;18.908;2024-02-21T03:50:53;4.90;;;2.20;;
70707;SDS011;58277;47.316;18.908;2024-02-21T03:53:15;5.30;;;2.60;;
70707;SDS011;58277;47.316;18.908;2024-02-21T03:55:38;6.15;;;2.38;;
70707;SDS011;58277;47.316;18.908;2024-02-21T03:58:01;5.03;;;2.33;;
70707;SDS011;58277;47.316;18.908;2024-02-21T04:00:24;5.53;;;2.28;;
70707;SDS011;58277;47.316;18.908;2024-02-21T04:02:47;6.50;;;2.37;;
70707;SDS011;58277;47.316;18.908;2024-02-21T04:05:09;4.47;;;2.40;;
70707;SDS011;58277;47.316;18.908;2024-02-21T04:07:34;5.68;;;2.33;;
70707;SDS011;58277;47.316;18.908;2024-02-21T04:09:56;6.20;;;2.22;;
70707;SDS011;58277;47.316;18.908;2024-02-21T04:12:19;4.90;;;2.20;;
70707;SDS011;58277;47.316;18.908;2024-02-21T04:14:43;6.43;;;2.60;;
70707;SDS011;58277;47.316;18.908;2024-02-21T04:17:08;8.18;;;2.50;;
70707;SDS011;58277;47.316;18.908;2024-02-21T04:19:31;5.75;;;2.30;;
70707;SDS011;58277;47.316;18.908;2024-02-21T04:21:54;4.50;;;2.22;;
70707;SDS011;58277;47.316;18.908;2024-02-21T04:24:17;5.78;;;2.30;;
70707;SDS011;58277;47.316;18.908;2024-02-21T04:26:40;5.37;;;2.47;;
70707;SDS011;58277;47.316;18.908;2024-02-21T04:29:03;6.80;;;2.25;;
70707;SDS011;58277;47.316;18.908;2024-02-21T04:31:26;5.95;;;2.90;;
70707;SDS011;58277;47.316;18.908;2024-02-21T04:33:49;8.52;;;2.55;;
70707;SDS011;58277;47.316;18.908;2024-02-21T04:36:14;5.05;;;2.30;;
70707;SDS011;58277;47.316;18.908;2024-02-21T04:38:40;5.47;;;2.60;;
70707;SDS011;58277;47.316;18.908;2024-02-21T04:41:03;4.57;;;2.40;;
70707;SDS011;58277;47.316;18.908;2024-02-21T04:43:26;8.68;;;2.88;;
70707;SDS011;58277;47.316;18.908;2024-02-21T04:45:49;7.57;;;2.47;;
70707;SDS011;58277;47.316;18.908;2024-02-21T04:48:12;5.80;;;2.70;;
70707;SDS011;58277;47.316;18.908;2024-02-21T04:50:35;6.63;;;2.63;;
70707;SDS011;58277;47.316;18.908;2024-02-21T04:52:59;6.25;;;2.78;;
70707;SDS011;58277;47.316;18.908;2024-02-21T04:55:22;7.78;;;2.70;;
70707;SDS011;58277;47.316;18.908;2024-02-21T04:57:44;5.93;;;2.58;;
70707;SDS011;58277;47.316;18.908;2024-02-21T05:00:07;5.50;;;2.60;;
70707;SDS011;58277;47.316;18.908;2024-02-21T05:02:35;5.63;;;2.53;;
70707;SDS011;58277;47.316;18.908;2024-02-21T05:04:58;6.82;;;2.95;;
70707;SDS011;58277;47.316;18.908;2024-02-21T05:07:21;6.43;;;2.90;;
70707;SDS011;58277;47.316;18.908;2024-02-21T05:09:43;7.35;;;2.90;;
70707;SDS011;58277;47.316;18.908;2024-02-21T05:12:06;7.55;;;3.47;;
70707;SDS011;58277;47.316;18.908;2024-02-21T05:14:32;6.97;;;3.10;;
70707;SDS011;58277;47.316;18.908;2024-02-21T05:16:54;7.85;;;2.55;;
70707;SDS011;58277;47.316;18.908;2024-02-21T05:19:17;7.28;;;2.90;;
70707;SDS011;58277;47.316;18.908;2024-02-21T05:21:41;6.63;;;3.03;;
70707;SDS011;58277;47.316;18.908;2024-02-21T05:24:03;8.77;;;4.15;;
70707;SDS011;58277;47.316;18.908;2024-02-21T05:26:27;7.17;;;3.57;;
70707;SDS011;58277;47.316;18.908;2024-02-21T05:28:50;7.18;;;3.50;;
70707;SDS011;58277;47.316;18.908;2024-02-21T05:31:13;8.18;;;3.83;;
70707;SDS011;58277;47.316;18.908;2024-02-21T05:33:36;11.80;;;4.55;;
70707;SDS011;58277;47.316;18.908;2024-02-21T05:35:59;13.82;;;5.80;;
70707;SDS011;58277;47.316;18.908;2024-02-21T05:38:22;11.33;;;5.17;;
70707;SDS011;58277;47.316;18.908;2024-02-21T05:40:45;7.72;;;4.20;;
70707;SDS011;58277;47.316;18.908;2024-02-21T05:43:08;8.35;;;3.40;;
70707;SDS011;58277;47.316;18.908;2024-02-21T05:45:31;7.70;;;3.03;;
70707;SDS011;58277;47.316;18.908;2024-02-21T05:47:53;8.32;;;3.10;;
70707;SDS011;58277;47.316;18.908;2024-02-21T05:50:16;7.57;;;3.30;;
70707;SDS011;58277;47.316;18.908;2024-02-21T05:52:39;7.10;;;3.13;;
70707;SDS011;58277;47.316;18.908;2024-02-21T05:55:02;9.50;;;3.88;;
70707;SDS011;58277;47.316;18.908;2024-02-21T05:57:25;9.55;;;3.95;;
70707;SDS011;58277;47.316;18.908;2024-02-21T05:59:48;9.27;;;3.58;;
70707;SDS011;58277;47.316;18.908;2024-02-21T06:02:11;10.57;;;3.60;;
70707;SDS011;58277;47.316;18.908;2024-02-21T06:04:33;9.98;;;3.40;;
70707;SDS011;58277;47.316;18.908;2024-02-21T06:06:56;9.20;;;3.05;;
70707;SDS011;58277;47.316;18.908;2024-02-21T06:09:19;10.35;;;2.90;;
70707;SDS011;58277;47.316;18.908;2024-02-21T06:11:42;6.72;;;2.78;;
70707;SDS011;58277;47.316;18.908;2024-02-21T06:14:08;7.03;;;2.53;;
70707;SDS011;58277;47.316;18.908;2024-02-21T06:16:30;6.63;;;3.30;;
70707;SDS011;58277;47.316;18.908;2024-02-21T06:18:53;6.95;;;2.90;;
70707;SDS011;58277;47.316;18.908;2024-02-21T06:21:16;8.13;;;2.70;;
70707;SDS011;58277;47.316;18.908;2024-02-21T06:23:39;7.50;;;3.50;;
70707;SDS011;58277;47.316;18.908;2024-02-21T06:26:02;7.87;;;2.87;;
70707;SDS011;58277;47.316;18.908;2024-02-21T06:28:25;6.90;;;2.72;;
70707;SDS011;58277;47.316;18.908;2024-02-21T06:30:48;6.75;;;2.78;;
70707;SDS011;58277;47.316;18.908;2024-02-21T06:33:11;7.35;;;3.15;;
70707;SDS011;58277;47.316;18.908;2024-02-21T06:35:34;10.07;;;2.78;;
70707;SDS011;58277;47.316;18.908;2024-02-21T06:37:57;9.53;;;3.80;;
70707;SDS011;58277;47.316;18.908;2024-02-21T06:40:22;5.20;;;2.40;;
70707;SDS011;58277;47.316;18.908;2024-02-21T06:42:45;6.68;;;2.75;;
70707;SDS011;58277;47.316;18.908;2024-02-21T06:45:08;5.68;;;2.90;;
70707;SDS011;58277;47.316;18.908;2024-02-21T06:47:31;7.30;;;2.38;;
70707;SDS011;58277;47.316;18.908;2024-02-21T06:49:54;7.40;;;2.63;;
70707;SDS011;58277;47.316;18.908;2024-02-21T06:52:18;6.28;;;2.72;;
70707;SDS011;58277;47.316;18.908;2024-02-21T06:54:45;8.38;;;2.90;;
70707;SDS011;58277;47.316;18.908;2024-02-21T06:57:12;6.47;;;2.53;;
70707;SDS011;58277;47.316;18.908;2024-02-21T06:59:38;5.57;;;2.42;;
70707;SDS011;58277;47.316;18.908;2024-02-21T07:02:00;6.67;;;2.73;;
70707;SDS011;58277;47.316;18.908;2024-02-21T07:04:23;5.80;;;2.28;;
70707;SDS011;58277;47.316;18.908;2024-02-21T07:06:46;7.40;;;2.60;;
70707;SDS011;58277;47.316;18.908;2024-02-21T07:09:09;8.40;;;2.65;;
70707;SDS011;58277;47.316;18.908;2024-02-21T07:11:32;5.85;;;2.47;;
70707;SDS011;58277;47.316;18.908;2024-02-21T07:13:55;5.27;;;2.67;;
70707;SDS011;58277;47.316;18.908;2024-02-21T07:16:18;4.82;;;2.35;;
70707;SDS011;58277;47.316;18.908;2024-02-21T07:18:41;6.80;;;2.70;;
70707;SDS011;58277;47.316;18.908;2024-02-21T07:21:04;6.25;;;2.70;;
70707;SDS011;58277;47.316;18.908;2024-02-21T07:23:27;7.03;;;2.58;;
70707;SDS011;58277;47.316;18.908;2024-02-21T07:25:50;4.83;;;2.40;;
70707;SDS011;58277;47.316;18.908;2024-02-21T07:28:12;7.13;;;2.75;;
70707;SDS011;58277;47.316;18.908;2024-02-21T07:30:37;6.70;;;2.90;;
70707;SDS011;58277;47.316;18.908;2024-02-21T07:33:00;7.70;;;2.67;;
70707;SDS011;58277;47.316;18.908;2024-02-21T07:35:23;8.35;;;3.65;;
70707;SDS011;58277;47.316;18.908;2024-02-21T07:37:46;8.07;;;2.60;;
70707;SDS011;58277;47.316;18.908;2024-02-21T07:40:12;7.50;;;2.55;;
70707;SDS011;58277;47.316;18.908;2024-02-21T07:42:36;7.97;;;2.80;;
70707;SDS011;58277;47.316;18.908;2024-02-21T07:44:59;6.72;;;2.78;;
70707;SDS011;58277;47.316;18.908;2024-02-21T07:47:22;6.57;;;2.75;;
70707;SDS011;58277;47.316;18.908;2024-02-21T07:49:45;8.77;;;3.80;;
70707;SDS011;58277;47.316;18.908;2024-02-21T07:52:11;7.80;;;3.47;;
70707;SDS011;58277;47.316;18.908;2024-02-21T07:54:34;8.27;;;3.55;;
70707;SDS011;58277;47.316;18.908;2024-02-21T07:56:58;8.02;;;3.17;;
70707;SDS011;58277;47.316;18.908;2024-02-21T07:59:22;11.45;;;4.22;;
70707;SDS011;58277;47.316;18.908;2024-02-21T08:01:48;11.33;;;4.43;;
70707;SDS011;58277;47.316;18.908;2024-02-21T08:04:11;8.52;;;3.13;;
70707;SDS011;58277;47.316;18.908;2024-02-21T08:06:35;12.98;;;4.15;;
70707;SDS011;58277;47.316;18.908;2024-02-21T08:09:01;9.68;;;3.72;;
70707;SDS011;58277;47.316;18.908;2024-02-21T08:11:25;12.65;;;3.83;;
70707;SDS011;58277;47.316;18.908;2024-02-21T08:13:49;18.53;;;5.20;;
70707;SDS011;58277;47.316;18.908;2024-02-21T08:16:14;18.33;;;4.97;;
70707;SDS011;58277;47.316;18.908;2024-02-21T08:18:37;21.25;;;6.30;;
70707;SDS011;58277;47.316;18.908;2024-02-21T08:21:01;23.55;;;6.88;;
70707;SDS011;58277;47.316;18.908;2024-02-21T08:23:25;8.02;;;3.60;;
70707;SDS011;58277;47.316;18.908;2024-02-21T08:25:48;6.37;;;2.80;;
70707;SDS011;58277;47.316;18.908;2024-02-21T08:28:11;6.95;;;2.70;;
70707;SDS011;58277;47.316;18.908;2024-02-21T08:30:37;9.23;;;3.25;;
70707;SDS011;58277;47.316;18.908;2024-02-21T08:33:03;7.45;;;3.45;;
70707;SDS011;58277;47.316;18.908;2024-02-21T08:35:26;8.38;;;3.10;;
70707;SDS011;58277;47.316;18.908;2024-02-21T08:37:49;7.43;;;2.70;;
70707;SDS011;58277;47.316;18.908;2024-02-21T08:40:13;6.72;;;2.53;;
70707;SDS011;58277;47.316;18.908;2024-02-21T08:42:39;7.25;;;2.80;;
70707;SDS011;58277;47.316;18.908;2024-02-21T08:45:03;7.15;;;2.80;;
70707;SDS011;58277;47.316;18.908;2024-02-21T08:47:26;9.77;;;3.17;;
70707;SDS011;58277;47.316;18.908;2024-02-21T08:49:49;7.00;;;3.30;;
70707;SDS011;58277;47.316;18.908;2024-02-21T08:52:12;12.32;;;5.40;;
70707;SDS011;58277;47.316;18.908;2024-02-21T08:54:35;10.85;;;5.22;;
70707;SDS011;58277;47.316;18.908;2024-02-21T08:56:58;9.00;;;3.40;;
70707;SDS011;58277;47.316;18.908;2024-02-21T08:59:21;7.00;;;3.20;;
70707;SDS011;58277;47.316;18.908;2024-02-21T09:01:44;6.53;;;2.70;;
70707;SDS011;58277;47.316;18.908;2024-02-21T09:04:10;9.68;;;3.38;;
70707;SDS011;58277;47.316;18.908;2024-02-21T09:06:33;6.72;;;3.30;;
70707;SDS011;58277;47.316;18.908;2024-02-21T09:08:59;8.35;;;3.03;;
70707;SDS011;58277;47.316;18.908;2024-02-21T09:11:23;9.00;;;3.10;;
70707;SDS011;58277;47.316;18.908;2024-02-21T09:13:46;7.80;;;2.77;;
70707;SDS011;58277;47.316;18.908;2024-02-21T09:16:09;8.63;;;3.50;;
70707;SDS011;58277;47.316;18.908;2024-02-21T09:18:32;8.25;;;2.92;;
70707;SDS011;58277;47.316;18.908;2024-02-21T09:20:55;8.38;;;2.97;;
70707;SDS011;58277;47.316;18.908;2024-02-21T09:23:18;7.65;;;3.30;;
70707;SDS011;58277;47.316;18.908;2024-02-21T09:25:42;9.67;;;3.50;;
70707;SDS011;58277;47.316;18.908;2024-02-21T09:28:05;9.00;;;3.35;;
70707;SDS011;58277;47.316;18.908;2024-02-21T09:30:35;11.25;;;3.47;;
70707;SDS011;58277;47.316;18.908;2024-02-21T09:32:58;9.90;;;3.25;;
70707;SDS011;58277;47.316;18.908;2024-02-21T09:35:25;7.13;;;2.95;;
70707;SDS011;58277;47.316;18.908;2024-02-21T09:37:50;7.10;;;2.97;;
70707;SDS011;58277;47.316;18.908;2024-02-21T09:40:15;8.43;;;3.05;;
70707;SDS011;58277;47.316;18.908;2024-02-21T09:42:41;9.50;;;3.40;;
70707;SDS011;58277;47.316;18.908;2024-02-21T09:45:27;7.45;;;3.50;;
70707;SDS011;58277;47.316;18.908;2024-02-21T09:47:50;9.77;;;3.75;;
70707;SDS011;58277;47.316;18.908;2024-02-21T09:50:38;9.13;;;3.57;;
70707;SDS011;58277;47.316;18.908;2024-02-21T09:53:03;13.00;;;4.97;;
70707;SDS011;58277;47.316;18.908;2024-02-21T09:55:30;12.48;;;5.13;;
70707;SDS011;58277;47.316;18.908;2024-02-21T09:57:57;9.63;;;3.80;;
70707;SDS011;58277;47.316;18.908;2024-02-21T10:00:42;7.63;;;3.38;;
70707;SDS011;58277;47.316;18.908;2024-02-21T10:03:05;9.60;;;3.20;;
70707;SDS011;58277;47.316;18.908;2024-02-21T10:05:31;9.63;;;3.33;;
70707;SDS011;58277;47.316;18.908;2024-02-21T10:07:54;8.95;;;2.95;;
70707;SDS011;58277;47.316;18.908;2024-02-21T10:10:18;10.02;;;3.13;;
70707;SDS011;58277;47.316;18.908;2024-02-21T10:12:53;8.73;;;3.25;;
70707;SDS011;58277;47.316;18.908;2024-02-21T10:15:20;10.87;;;3.37;;
70707;SDS011;58277;47.316;18.908;2024-02-21T10:17:45;9.30;;;3.45;;
70707;SDS011;58277;47.316;18.908;2024-02-21T10:20:11;8.38;;;3.50;;
70707;SDS011;58277;47.316;18.908;2024-02-21T10:22:35;9.73;;;3.30;;
70707;SDS011;58277;47.316;18.908;2024-02-21T10:25:06;12.40;;;4.10;;
70707;SDS011;58277;47.316;18.908;2024-02-21T10:27:32;8.33;;;3.70;;
70707;SDS011;58277;47.316;18.908;2024-02-21T10:29:55;9.00;;;3.35;;
70707;SDS011;58277;47.316;18.908;2024-02-21T10:32:18;9.45;;;3.50;;
70707;SDS011;58277;47.316;18.908;2024-02-21T10:34:41;9.15;;;3.53;;
70707;SDS011;58277;47.316;18.908;2024-02-21T10:37:07;10.38;;;3.42;;
70707;SDS011;58277;47.316;18.908;2024-02-21T10:39:32;11.90;;;3.53;;
70707;SDS011;58277;47.316;18.908;2024-02-21T10:41:56;10.38;;;3.70;;
70707;SDS011;58277;47.316;18.908;2024-02-21T10:44:23;9.43;;;3.40;;
70707;SDS011;58277;47.316;18.908;2024-02-21T10:46:46;11.15;;;3.65;;
70707;SDS011;58277;47.316;18.908;2024-02-21T10:49:10;10.90;;;4.15;;
70707;SDS011;58277;47.316;18.908;2024-02-21T10:51:43;10.13;;;3.90;;
70707;SDS011;58277;47.316;18.908;2024-02-21T10:56:41;10.07;;;4.35;;
70707;SDS011;58277;47.316;18.908;2024-02-21T10:59:05;11.85;;;4.53;;
70707;SDS011;58277;47.316;18.908;2024-02-21T11:01:29;11.32;;;4.15;;
70707;SDS011;58277;47.316;18.908;2024-02-21T11:03:55;11.43;;;4.30;;
70707;SDS011;58277;47.316;18.908;2024-02-21T11:06:20;10.63;;;4.53;;
70707;SDS011;58277;47.316;18.908;2024-02-21T11:08:44;10.25;;;4.10;;
70707;SDS011;58277;47.316;18.908;2024-02-21T11:11:07;8.70;;;3.70;;
70707;SDS011;58277;47.316;18.908;2024-02-21T11:13:45;11.45;;;3.85;;
70707;SDS011;58277;47.316;18.908;2024-02-21T11:16:09;8.53;;;3.73;;
70707;SDS011;58277;47.316;18.908;2024-02-21T11:18:35;10.60;;;4.10;;
70707;SDS011;58277;47.316;18.908;2024-02-21T11:20:59;11.95;;;4.97;;
70707;SDS011;58277;47.316;18.908;2024-02-21T11:23:28;8.45;;;3.33;;
70707;SDS011;58277;47.316;18.908;2024-02-21T11:25:50;9.73;;;2.85;;
70707;SDS011;58277;47.316;18.908;2024-02-21T11:28:14;10.20;;;2.83;;
70707;SDS011;58277;47.316;18.908;2024-02-21T11:30:49;9.20;;;3.25;;
70707;SDS011;58277;47.316;18.908;2024-02-21T11:33:13;8.00;;;3.00;;
70707;SDS011;58277;47.316;18.908;2024-02-21T11:35:36;9.35;;;3.28;;
70707;SDS011;58277;47.316;18.908;2024-02-21T11:38:09;8.40;;;3.17;;
70707;SDS011;58277;47.316;18.908;2024-02-21T11:40:35;8.77;;;2.90;;
70707;SDS011;58277;47.316;18.908;2024-02-21T11:43:00;7.75;;;2.80;;
70707;SDS011;58277;47.316;18.908;2024-02-21T11:45:25;7.55;;;3.05;;
70707;SDS011;58277;47.316;18.908;2024-02-21T11:47:48;9.75;;;3.15;;
70707;SDS011;58277;47.316;18.908;2024-02-21T11:50:11;8.85;;;2.83;;
70707;SDS011;58277;47.316;18.908;2024-02-21T11:52:38;6.87;;;2.93;;
70707;SDS011;58277;47.316;18.908;2024-02-21T11:55:01;9.57;;;2.55;;
70707;SDS011;58277;47.316;18.908;2024-02-21T11:57:30;7.40;;;3.03;;
70707;SDS011;58277;47.316;18.908;2024-02-21T11:59:53;10.73;;;3.15;;
70707;SDS011;58277;47.316;18.908;2024-02-21T12:02:21;9.95;;;2.42;;
70707;SDS011;58277;47.316;18.908;2024-02-21T12:04:44;6.13;;;2.40;;
70707;SDS011;58277;47.316;18.908;2024-02-21T12:07:08;6.75;;;2.33;;
70707;SDS011;58277;47.316;18.908;2024-02-21T12:09:31;6.38;;;2.47;;
70707;SDS011;58277;47.316;18.908;2024-02-21T12:12:01;8.00;;;2.05;;
70707;SDS011;58277;47.316;18.908;2024-02-21T12:14:28;5.60;;;2.00;;
70707;SDS011;58277;47.316;18.908;2024-02-21T12:16:52;6.50;;;1.73;;
70707;SDS011;58277;47.316;18.908;2024-02-21T12:19:16;6.68;;;2.10;;
70707;SDS011;58277;47.316;18.908;2024-02-21T12:21:40;4.68;;;2.10;;
70707;SDS011;58277;47.316;18.908;2024-02-21T12:24:13;8.32;;;2.38;;
70707;SDS011;58277;47.316;18.908;2024-02-21T12:26:58;7.13;;;1.90;;
70707;SDS011;58277;47.316;18.908;2024-02-21T12:29:21;5.67;;;1.87;;
70707;SDS011;58277;47.316;18.908;2024-02-21T12:31:45;8.57;;;2.20;;
70707;SDS011;58277;47.316;18.908;2024-02-21T12:34:09;6.68;;;1.95;;
70707;SDS011;58277;47.316;18.908;2024-02-21T12:36:32;5.70;;;1.90;;
70707;SDS011;58277;47.316;18.908;2024-02-21T12:38:55;5.97;;;1.80;;
70707;SDS011;58277;47.316;18.908;2024-02-21T12:41:18;8.77;;;2.20;;
70707;SDS011;58277;47.316;18.908;2024-02-21T12:43:41;6.78;;;2.03;;
70707;SDS011;58277;47.316;18.908;2024-02-21T12:46:04;10.13;;;2.70;;
70707;SDS011;58277;47.316;18.908;2024-02-21T12:48:27;6.70;;;2.30;;
70707;SDS011;58277;47.316;18.908;2024-02-21T12:50:52;7.50;;;2.88;;
70707;SDS011;58277;47.316;18.908;2024-02-21T12:53:15;9.33;;;2.60;;
70707;SDS011;58277;47.316;18.908;2024-02-21T12:55:50;5.50;;;2.20;;
70707;SDS011;58277;47.316;18.908;2024-02-21T12:58:14;5.32;;;2.05;;
70707;SDS011;58277;47.316;18.908;2024-02-21T13:00:39;6.57;;;2.15;;
70707;SDS011;58277;47.316;18.908;2024-02-21T13:03:03;7.25;;;2.28;;
70707;SDS011;58277;47.316;18.908;2024-02-21T13:05:26;7.10;;;2.57;;
70707;SDS011;58277;47.316;18.908;2024-02-21T13:07:50;5.35;;;2.28;;
70707;SDS011;58277;47.316;18.908;2024-02-21T13:10:13;8.10;;;2.47;;
70707;SDS011;58277;47.316;18.908;2024-02-21T13:12:36;9.15;;;2.20;;
70707;SDS011;58277;47.316;18.908;2024-02-21T13:14:59;6.55;;;2.20;;
70707;SDS011;58277;47.316;18.908;2024-02-21T13:17:22;8.87;;;2.10;;
70707;SDS011;58277;47.316;18.908;2024-02-21T13:19:45;7.15;;;2.30;;
70707;SDS011;58277;47.316;18.908;2024-02-21T13:22:08;6.90;;;2.22;;
70707;SDS011;58277;47.316;18.908;2024-02-21T13:24:31;6.28;;;2.35;;
70707;SDS011;58277;47.316;18.908;2024-02-21T13:26:54;7.78;;;2.22;;
70707;SDS011;58277;47.316;18.908;2024-02-21T13:29:17;8.87;;;2.30;;
70707;SDS011;58277;47.316;18.908;2024-02-21T13:31:40;6.47;;;1.90;;
70707;SDS011;58277;47.316;18.908;2024-02-21T13:34:03;9.10;;;2.13;;
70707;SDS011;58277;47.316;18.908;2024-02-21T13:36:27;8.45;;;2.35;;
70707;SDS011;58277;47.316;18.908;2024-02-21T13:38:50;6.55;;;2.10;;
70707;SDS011;58277;47.316;18.908;2024-02-21T13:41:13;6.83;;;2.00;;
70707;SDS011;58277;47.316;18.908;2024-02-21T13:43:36;7.70;;;2.40;;
70707;SDS011;58277;47.316;18.908;2024-02-21T13:46:02;8.80;;;2.35;;
70707;SDS011;58277;47.316;18.908;2024-02-21T13:48:27;9.10;;;2.58;;
70707;SDS011;58277;47.316;18.908;2024-02-21T13:50:52;8.93;;;2.40;;
70707;SDS011;58277;47.316;18.908;2024-02-21T13:53:15;8.70;;;2.40;;
70707;SDS011;58277;47.316;18.908;2024-02-21T13:55:40;6.93;;;2.30;;
70707;SDS011;58277;47.316;18.908;2024-02-21T13:58:05;6.72;;;2.30;;
70707;SDS011;58277;47.316;18.908;2024-02-21T14:00:30;6.53;;;2.00;;
70707;SDS011;58277;47.316;18.908;2024-02-21T14:02:55;9.27;;;2.25;;
70707;SDS011;58277;47.316;18.908;2024-02-21T14:05:23;5.37;;;2.30;;
70707;SDS011;58277;47.316;18.908;2024-02-21T14:07:46;4.93;;;2.10;;
70707;SDS011;58277;47.316;18.908;2024-02-21T14:10:09;4.80;;;2.17;;
70707;SDS011;58277;47.316;18.908;2024-02-21T14:12:32;6.53;;;2.08;;
70707;SDS011;58277;47.316;18.908;2024-02-21T14:14:55;8.75;;;2.35;;
70707;SDS011;58277;47.316;18.908;2024-02-21T14:17:21;8.13;;;2.90;;